createdAt,value
2017-10-22T00:00:30.704Z,99.9
2017-10-22T00:05:20.336Z,99.9
2017-10-22T00:10:08.045Z,99.9
2017-10-22T00:15:36.242Z,99.9
2017-10-22T00:20:03.218Z,99.9
2017-10-22T00:25:13.104Z,99.9
2017-10-22T00:30:07.977Z,99.9
2017-10-22T00:35:10.269Z,99.9
2017-10-22T00:40:08.154Z,99.9
2017-10-22T00:45:10.972Z,99.9
2017-10-22T00:50:08.361Z,99.9
2017-10-22T00:55:08.187Z,99.9
2017-10-22T01:00:08.121Z,99.9
2017-10-22T01:05:25.639Z,99.9
2017-10-22T01:10:23.495Z,99.9
2017-10-22T01:15:07.666Z,99.9
2017-10-22T01:20:02.606Z,99.9
2017-10-22T01:25:03.377Z,99.9
2017-10-22T01:30:08.326Z,99.9
2017-10-22T01:35:15.825Z,99.9
2017-10-22T01:40:06.112Z,99.9
2017-10-22T01:45:05.454Z,99.9
2017-10-22T01:50:02.819Z,99.9
2017-10-22T01:55:02.737Z,99.9
2017-10-22T02:00:05.241Z,99.9
2017-10-22T02:05:07.645Z,99.9
2017-10-22T02:10:08.068Z,99.9
2017-10-22T02:15:05.899Z,99.9
2017-10-22T02:20:26.074Z,99.9
2017-10-22T02:25:03.182Z,99.9
2017-10-22T02:30:23.318Z,90.3
2017-10-22T02:35:03.036Z,99.9
2017-10-22T02:40:03.494Z,99.9
2017-10-22T02:45:07.895Z,99.9
2017-10-22T02:50:02.806Z,99.9
2017-10-22T02:55:07.765Z,99.9
2017-10-22T03:00:07.750Z,99.9
2017-10-22T03:05:03.536Z,99.9
2017-10-22T03:10:05.513Z,99.9
2017-10-22T03:15:13.455Z,99.9
2017-10-22T03:20:03.294Z,99.9
2017-10-22T03:25:03.102Z,87.1
2017-10-22T03:30:08.067Z,99.9
2017-10-22T03:35:02.835Z,99.9
2017-10-22T03:40:03.289Z,99.9
2017-10-22T03:45:11.144Z,99.9
2017-10-22T03:50:18.605Z,99.9
2017-10-22T03:55:03.233Z,99.9
2017-10-22T04:00:05.622Z,99.9
2017-10-22T04:05:10.503Z,99.9
2017-10-22T04:10:33.663Z,99.9
2017-10-22T04:15:06.024Z,99.9
2017-10-22T04:20:13.551Z,99.9
2017-10-22T04:25:18.325Z,99.9
2017-10-22T04:30:02.979Z,99.9
2017-10-22T04:35:02.768Z,99.9
2017-10-22T04:40:03.213Z,99.9
2017-10-22T04:45:10.970Z,99.9
2017-10-22T04:50:05.813Z,99.9
2017-10-22T04:55:33.381Z,99.9
2017-10-22T05:00:23.083Z,99.9
2017-10-22T05:05:12.772Z,99.9
2017-10-22T05:10:08.203Z,99.9
2017-10-22T05:15:26.120Z,99.9
2017-10-22T05:20:13.350Z,99.9
2017-10-22T05:25:05.488Z,99.9
2017-10-22T05:30:18.078Z,99.9
2017-10-22T05:35:02.698Z,99.9
2017-10-22T05:40:13.183Z,99.9
2017-10-22T05:45:18.517Z,99.9
2017-10-22T05:50:05.771Z,99.9
2017-10-22T05:55:10.586Z,99.9
2017-10-22T06:00:05.450Z,99.9
2017-10-22T06:05:10.292Z,99.9
2017-10-22T06:10:03.088Z,99.9
2017-10-22T06:15:16.015Z,99.3
2017-10-22T06:20:05.747Z,99.4
2017-10-22T06:25:20.728Z,99.2
2017-10-22T06:30:15.437Z,99.4
2017-10-22T06:35:02.574Z,99.4
2017-10-22T06:40:02.987Z,99.5
2017-10-22T06:45:10.813Z,99.1
2017-10-22T06:50:08.091Z,99
2017-10-22T06:55:07.835Z,98.9
2017-10-22T07:00:02.689Z,98.9
2017-10-22T07:05:33.749Z,98.8
2017-10-22T07:10:10.375Z,98.6
2017-10-22T07:15:23.254Z,98.5
2017-10-22T07:20:07.931Z,97.7
2017-10-22T07:25:22.845Z,97.3
2017-10-22T07:30:03.457Z,97.2
2017-10-22T07:35:05.727Z,96.2
2017-10-22T07:40:06.061Z,96.5
2017-10-22T07:45:02.760Z,96.5
2017-10-22T07:50:15.276Z,96.5
2017-10-22T07:55:08.385Z,95.6
2017-10-22T08:00:08.232Z,95.7
2017-10-22T08:05:05.452Z,95.7
2017-10-22T08:10:03.320Z,95.7
2017-10-22T08:15:08.553Z,95.6
2017-10-22T08:20:08.392Z,95.5
2017-10-22T08:25:15.767Z,95.6
2017-10-22T08:30:10.538Z,95.4
2017-10-22T08:35:07.782Z,95.6
2017-10-22T08:40:08.173Z,95.7
2017-10-22T08:45:05.937Z,95.2
2017-10-22T08:50:15.947Z,94.8
2017-10-22T08:55:08.183Z,94.8
2017-10-22T09:00:20.743Z,93.8
2017-10-22T09:05:02.748Z,93.8
2017-10-22T09:10:38.667Z,94.4
2017-10-22T09:15:13.568Z,92.6
2017-10-22T09:20:05.835Z,92.2
2017-10-22T09:25:03.051Z,92.1
2017-10-22T09:30:08.034Z,91.9
2017-10-22T09:35:05.278Z,90.9
2017-10-22T09:40:03.103Z,90.9
2017-10-22T09:45:10.955Z,91
2017-10-22T09:50:10.831Z,90.3
2017-10-22T09:55:20.732Z,88.2
2017-10-22T10:00:18.120Z,89.2
2017-10-22T10:05:12.861Z,87.6
2017-10-22T10:10:03.135Z,87.7
2017-10-22T10:15:06.034Z,87
2017-10-22T10:20:10.994Z,82.2
2017-10-22T10:25:05.848Z,83.1
2017-10-22T10:30:05.731Z,83.7
2017-10-22T10:35:25.782Z,80.9
2017-10-22T10:40:08.505Z,81.2
2017-10-22T10:45:02.818Z,81.2
2017-10-22T10:50:05.324Z,81.8
2017-10-22T10:55:02.590Z,81.5
2017-10-22T11:00:08.558Z,79.7
2017-10-22T11:05:13.495Z,76.3
2017-10-22T11:10:10.402Z,77.8
2017-10-22T11:15:23.473Z,75.2
2017-10-22T11:20:20.929Z,75
2017-10-22T11:25:08.242Z,76.3
2017-10-22T11:30:05.680Z,76.9
2017-10-22T11:35:05.586Z,78.8
2017-10-22T11:40:05.996Z,78.9
2017-10-22T11:45:23.082Z,79.6
2017-10-22T11:50:05.359Z,74
2017-10-22T11:55:02.696Z,74
2017-10-22T12:00:02.706Z,74.9
2017-10-22T12:05:02.582Z,75.6
2017-10-22T12:10:10.654Z,75.9
2017-10-22T12:15:13.529Z,73.6
2017-10-22T12:20:03.341Z,73.5
2017-10-22T12:25:20.933Z,69.3
2017-10-22T12:30:05.765Z,69.3
2017-10-22T12:35:03.169Z,69.3
2017-10-22T12:40:05.173Z,69.6
2017-10-22T12:45:10.742Z,69.2
2017-10-22T12:50:05.681Z,71.6
2017-10-22T12:55:30.891Z,71.9
2017-10-22T13:00:05.604Z,72
2017-10-22T13:05:02.974Z,71.9
2017-10-22T13:10:26.378Z,69.6
2017-10-22T13:15:07.940Z,68.9
2017-10-22T13:20:10.513Z,70.4
2017-10-22T13:25:10.411Z,71.7
2017-10-22T13:30:07.896Z,72.7
2017-10-22T13:35:10.287Z,74.9
2017-10-22T13:40:05.766Z,75.8
2017-10-22T13:45:23.707Z,75.2
2017-10-22T13:50:05.984Z,76.7
2017-10-22T13:55:03.237Z,76.8
2017-10-22T14:00:10.745Z,78
2017-10-22T14:05:10.590Z,77.7
2017-10-22T14:10:03.525Z,77.7
2017-10-22T14:15:10.392Z,78.5
2017-10-22T14:20:05.228Z,78.9
2017-10-22T14:25:03.447Z,78.9
2017-10-22T14:30:03.372Z,79.3
2017-10-22T14:35:03.180Z,80.1
2017-10-22T14:40:08.600Z,80.4
2017-10-22T14:45:07.843Z,81
2017-10-22T14:50:15.298Z,81.8
2017-10-22T14:55:03.471Z,81.8
2017-10-22T15:00:03.349Z,82.4
2017-10-22T15:05:05.694Z,83
2017-10-22T15:10:03.543Z,83.1
2017-10-22T15:15:05.312Z,84
2017-10-22T15:20:22.916Z,84.2
2017-10-22T15:25:03.476Z,84.4
2017-10-22T15:30:03.413Z,84.7
2017-10-22T15:35:05.700Z,85.5
2017-10-22T15:40:08.603Z,86.2
2017-10-22T15:45:02.831Z,86.2
2017-10-22T15:50:10.352Z,87.5
2017-10-22T15:55:16.183Z,87.7
2017-10-22T16:00:10.988Z,88.4
2017-10-22T16:05:08.297Z,88.8
2017-10-22T16:10:17.775Z,89.6
2017-10-22T16:15:02.839Z,89.6
2017-10-22T16:20:10.436Z,90.2
2017-10-22T16:25:03.451Z,90.2
2017-10-22T16:30:03.393Z,90.2
2017-10-22T16:35:03.143Z,90.8
2017-10-22T16:40:16.200Z,91
2017-10-22T16:45:02.810Z,91
2017-10-22T16:50:05.250Z,91.1
2017-10-22T16:55:03.461Z,91.1
2017-10-22T17:00:03.413Z,91.2
2017-10-22T17:05:03.127Z,91.5
2017-10-22T17:10:11.061Z,92.3
2017-10-22T17:15:07.843Z,92.4
2017-10-22T17:20:20.422Z,92.5
2017-10-22T17:25:08.419Z,92.7
2017-10-22T17:30:10.868Z,92.9
2017-10-22T17:35:03.051Z,92.9
2017-10-22T17:40:06.230Z,93.7
2017-10-22T17:45:02.698Z,93.8
2017-10-22T17:50:11.116Z,93.9
2017-10-22T17:55:05.779Z,94
2017-10-22T18:00:20.798Z,94.1
2017-10-22T18:05:07.967Z,94.2
2017-10-22T18:10:03.225Z,94.2
2017-10-22T18:15:06.044Z,51.2
2017-10-22T18:20:05.872Z,94.4
2017-10-22T18:25:05.648Z,94.6
2017-10-22T18:30:05.504Z,94.4
2017-10-22T18:35:05.255Z,94.2
2017-10-22T18:40:13.276Z,94.5
2017-10-22T18:45:05.921Z,94.4
2017-10-22T18:50:21.230Z,94.5
2017-10-22T18:55:02.903Z,94.5
2017-10-22T19:00:03.125Z,94.4
2017-10-22T19:05:02.868Z,94.5
2017-10-22T19:10:03.090Z,94.4
2017-10-22T19:15:03.373Z,94.4
2017-10-22T19:20:11.181Z,94.6
2017-10-22T19:25:08.035Z,94.6
2017-10-22T19:30:08.596Z,94.7
2017-10-22T19:35:06.235Z,94.8
2017-10-22T19:40:02.646Z,94.8
2017-10-22T19:45:18.529Z,94.7
2017-10-22T19:50:12.994Z,94.9
2017-10-22T19:55:02.632Z,94.9
2017-10-22T20:00:05.824Z,94.8
2017-10-22T20:05:13.079Z,95
2017-10-22T20:10:05.969Z,95.2
2017-10-22T20:15:03.490Z,95.1
2017-10-22T20:20:10.890Z,95.3
2017-10-22T20:25:03.020Z,95.3
2017-10-22T20:35:15.182Z,95.6
2017-10-22T20:40:35.627Z,95.8
2017-10-22T20:45:08.064Z,95.9
2017-10-22T20:50:07.912Z,95.9
2017-10-22T20:55:03.507Z,95.9
2017-10-22T21:00:03.299Z,96
2017-10-22T21:05:05.523Z,96
2017-10-22T21:10:05.816Z,96.2
2017-10-22T21:15:08.545Z,96.7
2017-10-22T21:20:08.334Z,97
2017-10-22T21:25:07.992Z,97.3
2017-10-22T21:30:05.298Z,97.3
2017-10-22T21:35:03.381Z,97.3
2017-10-22T21:40:02.693Z,97.2
2017-10-22T21:45:23.086Z,97.4
2017-10-22T21:50:07.715Z,97.4
2017-10-22T21:55:05.833Z,97.5
2017-10-22T22:00:23.324Z,97.4
2017-10-22T22:05:25.506Z,97.5
2017-10-22T22:10:05.644Z,97.3
2017-10-22T22:15:18.387Z,97.3
2017-10-22T22:20:10.575Z,97.1
2017-10-22T22:25:02.692Z,97.1
2017-10-22T22:30:06.018Z,96.8
2017-10-22T22:35:05.696Z,96.7
2017-10-22T22:40:05.989Z,96.6
2017-10-22T22:45:05.226Z,96.4
2017-10-22T22:50:03.508Z,96.4
2017-10-22T22:55:03.179Z,96.4
2017-10-22T23:00:03.026Z,96.4
2017-10-22T23:05:02.757Z,96.2
2017-10-22T23:10:10.632Z,96.2
2017-10-22T23:15:05.761Z,96.2
2017-10-22T23:20:08.174Z,96.1
2017-10-22T23:25:05.313Z,96
2017-10-22T23:30:07.696Z,96
2017-10-22T23:35:08.342Z,95.9
2017-10-22T23:40:22.869Z,96
2017-10-22T23:45:07.872Z,96.1
2017-10-22T23:50:05.169Z,95.8
2017-10-22T23:55:28.597Z,95.7
